Terminal Aerodrome Forecast
Issued by NWS Raleigh/Durham, NC

Home | Current Version | Previous Version | Text Only | Print | Product List | Glossary On
Versions: 1 2 3 4 5 6 7 8 9 10 11 12 13 14 15 16 17
000
FTUS42 KRAH 181138
TAFFAY
TAF
KFAY 181138Z 1812/1912 VRB03KT P6SM SCT150
     FM181300 VRB03KT P6SM SCT150
     FM181500 20007KT P6SM FEW035
     FM181700 21011G19KT P6SM SCT040
     FM190200 20012KT P6SM SCT250 WS020/21045KT
     FM190700 21016G25KT P6SM BKN140 WS020/22045KT
     FM190800 22016G25KT P6SM OVC030
     FM191000 23013G22KT P6SM BKN040=

USA.gov is the U.S. government's official web portal to all federal, state and local government web resources and services.